Time,TemperatureF,DewpointF,PressureIn,WindDirection,WindDirectionDegrees,WindSpeedMPH,WindSpeedGustMPH,Humidity,HourlyPrecipIn,Conditions,Clouds,dailyrainin,SoftwareType,DateUTC
2013-02-28 00:05:00,35.1,28.0,30.36,NE,55,0.0,1.0,75,0.00,,,0.00,Wunderground v.1.15,2013-02-28 08:05:00,
2013-02-28 00:10:00,35.4,28.9,30.36,NE,55,2.0,2.0,77,0.00,,,0.00,Wunderground v.1.15,2013-02-28 08:10:00,
2013-02-28 00:16:00,35.5,29.6,30.36,ESE,123,3.0,3.0,79,0.00,,,0.00,Wunderground v.1.15,2013-02-28 08:16:00,
2013-02-28 00:21:00,35.4,29.8,30.36,ESE,123,2.0,3.0,80,0.00,,,0.00,Wunderground v.1.15,2013-02-28 08:21:00,
2013-02-28 00:27:00,35.2,29.6,30.36,ESE,123,0.0,3.0,80,0.00,,,0.00,Wunderground v.1.15,2013-02-28 08:27:00,
2013-02-28 00:32:00,35.0,29.8,30.36,ESE,123,0.0,1.0,81,0.00,,,0.00,Wunderground v.1.15,2013-02-28 08:32:00,
2013-02-28 00:37:00,34.9,29.7,30.36,ESE,123,2.0,2.0,81,0.00,,,0.00,Wunderground v.1.15,2013-02-28 08:37:00,
2013-02-28 00:43:00,34.8,28.6,30.36,ESE,123,3.0,3.0,78,0.00,,,0.00,Wunderground v.1.15,2013-02-28 08:43:00,
2013-02-28 00:48:00,34.8,28.3,30.36,ESE,123,0.0,3.0,77,0.00,,,0.00,Wunderground v.1.15,2013-02-28 08:48:00,
2013-02-28 00:54:00,34.7,27.9,30.37,ESE,123,1.0,1.0,76,0.00,,,0.00,Wunderground v.1.15,2013-02-28 08:54:00,
2013-02-28 01:00:00,34.6,27.8,30.37,ESE,123,0.0,0.0,76,0.00,,,0.00,Wunderground v.1.15,2013-02-28 09:00:00,
2013-02-28 01:05:00,34.7,28.2,30.36,ESE,123,1.0,1.0,77,0.00,,,0.00,Wunderground v.1.15,2013-02-28 09:05:00,
2013-02-28 01:11:00,35.0,28.5,30.36,ESE,123,1.0,1.0,77,0.00,,,0.00,Wunderground v.1.15,2013-02-28 09:11:00,
2013-02-28 01:17:00,35.1,28.6,30.35,ESE,123,1.0,1.0,77,0.00,,,0.00,Wunderground v.1.15,2013-02-28 09:17:00,
2013-02-28 01:22:00,35.2,28.7,30.35,ESE,123,0.0,1.0,77,0.00,,,0.00,Wunderground v.1.15,2013-02-28 09:22:00,
2013-02-28 01:28:00,35.2,28.7,30.35,ESE,123,0.0,1.0,77,0.00,,,0.00,Wunderground v.1.15,2013-02-28 09:28:00,
2013-02-28 01:33:00,35.1,28.6,30.35,ESE,123,1.0,2.0,77,0.00,,,0.00,Wunderground v.1.15,2013-02-28 09:33:00,
2013-02-28 01:39:00,35.1,28.3,30.36,ESE,123,3.0,3.0,76,0.00,,,0.00,Wunderground v.1.15,2013-02-28 09:39:00,
2013-02-28 01:45:00,34.9,28.1,30.36,ESE,123,0.0,2.0,76,0.00,,,0.00,Wunderground v.1.15,2013-02-28 09:45:00,
2013-02-28 01:50:00,34.8,28.0,30.35,ESE,123,0.0,0.0,76,0.00,,,0.00,Wunderground v.1.15,2013-02-28 09:50:00,
2013-02-28 01:56:00,34.8,28.3,30.35,ESE,123,0.0,0.0,77,0.00,,,0.00,Wunderground v.1.15,2013-02-28 09:56:00,
2013-02-28 02:01:00,34.7,27.9,30.35,ESE,123,3.0,4.0,76,0.00,,,0.00,Wunderground v.1.15,2013-02-28 10:01:00,
2013-02-28 02:06:00,34.4,27.6,30.35,ESE,123,1.0,4.0,76,0.00,,,0.00,Wunderground v.1.15,2013-02-28 10:06:00,
2013-02-28 02:11:00,34.2,27.7,30.35,ESE,123,1.0,2.0,77,0.00,,,0.00,Wunderground v.1.15,2013-02-28 10:11:00,
2013-02-28 02:16:00,34.1,27.6,30.34,ESE,123,1.0,2.0,77,0.00,,,0.00,Wunderground v.1.15,2013-02-28 10:16:00,
2013-02-28 02:21:00,34.2,28.1,30.35,ESE,123,0.0,1.0,78,0.00,,,0.00,Wunderground v.1.15,2013-02-28 10:21:00,
2013-02-28 02:26:00,34.2,28.1,30.35,ESE,123,2.0,3.0,78,0.00,,,0.00,Wunderground v.1.15,2013-02-28 10:26:00,
2013-02-28 02:31:00,33.9,27.8,30.35,ESE,123,2.0,3.0,78,0.00,,,0.00,Wunderground v.1.15,2013-02-28 10:31:00,
2013-02-28 02:36:00,33.6,27.5,30.35,ESE,123,0.0,3.0,78,0.00,,,0.00,Wunderground v.1.15,2013-02-28 10:36:00,
2013-02-28 02:41:00,33.5,27.7,30.35,ESE,123,0.0,1.0,79,0.00,,,0.00,Wunderground v.1.15,2013-02-28 10:41:00,
2013-02-28 02:46:00,33.7,28.2,30.35,ESE,123,2.0,3.0,80,0.00,,,0.00,Wunderground v.1.15,2013-02-28 10:46:00,
2013-02-28 02:51:00,34.1,28.9,30.35,ESE,123,4.0,4.0,81,0.00,,,0.00,Wunderground v.1.15,2013-02-28 10:51:00,
2013-02-28 02:56:00,34.2,29.0,30.36,ESE,123,0.0,4.0,81,0.00,,,0.00,Wunderground v.1.15,2013-02-28 10:56:00,
2013-02-28 03:01:00,34.3,29.4,30.35,ESE,123,0.0,2.0,82,0.00,,,0.00,Wunderground v.1.15,2013-02-28 11:01:00,
2013-02-28 03:06:00,34.3,28.8,30.36,ESE,123,2.0,2.0,80,0.00,,,0.00,Wunderground v.1.15,2013-02-28 11:06:00,
2013-02-28 03:12:00,33.8,28.0,30.36,ESE,123,0.0,2.0,79,0.00,,,0.00,Wunderground v.1.15,2013-02-28 11:12:00,
2013-02-28 03:17:00,33.4,27.9,30.36,ESE,123,1.0,3.0,80,0.00,,,0.00,Wunderground v.1.15,2013-02-28 11:17:00,
2013-02-28 03:22:00,33.4,28.2,30.36,ESE,123,0.0,1.0,81,0.00,,,0.00,Wunderground v.1.15,2013-02-28 11:22:00,
2013-02-28 03:27:00,33.7,28.5,30.36,ESE,123,2.0,2.0,81,0.00,,,0.00,Wunderground v.1.15,2013-02-28 11:27:00,
2013-02-28 03:32:00,33.8,28.3,30.36,ESE,123,2.0,2.0,80,0.00,,,0.00,Wunderground v.1.15,2013-02-28 11:32:00,
2013-02-28 03:37:00,33.7,27.9,30.37,ESE,123,2.0,3.0,79,0.00,,,0.00,Wunderground v.1.15,2013-02-28 11:37:00,
2013-02-28 03:42:00,33.6,27.8,30.37,ESE,123,0.0,2.0,79,0.00,,,0.00,Wunderground v.1.15,2013-02-28 11:42:00,
2013-02-28 03:47:00,33.6,27.8,30.37,ESE,123,0.0,2.0,79,0.00,,,0.00,Wunderground v.1.15,2013-02-28 11:47:00,
2013-02-28 03:52:00,33.5,27.7,30.37,ESE,123,1.0,1.0,79,0.00,,,0.00,Wunderground v.1.15,2013-02-28 11:52:00,
2013-02-28 03:57:00,33.7,27.6,30.37,ESE,123,0.0,1.0,78,0.00,,,0.00,Wunderground v.1.15,2013-02-28 11:57:00,
2013-02-28 04:02:00,34.0,29.1,30.37,ESE,123,1.0,2.0,82,0.00,,,0.00,Wunderground v.1.15,2013-02-28 12:02:00,
2013-02-28 04:07:00,34.4,29.5,30.37,ESE,123,2.0,3.0,82,0.00,,,0.00,Wunderground v.1.15,2013-02-28 12:07:00,
2013-02-28 04:12:00,34.7,30.1,30.37,ESE,123,2.0,4.0,83,0.00,,,0.00,Wunderground v.1.15,2013-02-28 12:12:00,
2013-02-28 04:17:00,35.0,30.9,30.37,ESE,123,3.0,4.0,85,0.00,,,0.00,Wunderground v.1.15,2013-02-28 12:17:00,
2013-02-28 04:22:00,35.2,31.4,30.37,ESE,123,2.0,3.0,86,0.00,,,0.00,Wunderground v.1.15,2013-02-28 12:22:00,
2013-02-28 04:27:00,35.3,31.5,30.38,ESE,123,0.0,4.0,86,0.00,,,0.00,Wunderground v.1.15,2013-02-28 12:27:00,
2013-02-28 04:32:00,34.6,29.1,30.37,ESE,123,2.0,4.0,80,0.00,,,0.00,Wunderground v.1.15,2013-02-28 12:32:00,
2013-02-28 04:37:00,33.8,28.6,30.38,ESE,123,3.0,4.0,81,0.00,,,0.00,Wunderground v.1.15,2013-02-28 12:37:00,
2013-02-28 04:42:00,33.4,28.5,30.38,ESE,123,3.0,4.0,82,0.00,,,0.00,Wunderground v.1.15,2013-02-28 12:42:00,
2013-02-28 04:48:00,33.2,28.3,30.38,ESE,123,4.0,4.0,82,0.00,,,0.00,Wunderground v.1.15,2013-02-28 12:48:00,
2013-02-28 04:53:00,33.2,28.6,30.38,ENE,63,3.0,4.0,83,0.00,,,0.00,Wunderground v.1.15,2013-02-28 12:53:00,
2013-02-28 04:58:00,33.1,28.8,30.38,ENE,63,4.0,4.0,84,0.00,,,0.00,Wunderground v.1.15,2013-02-28 12:58:00,
2013-02-28 05:03:00,32.9,28.9,30.38,ENE,62,4.0,7.0,85,0.00,,,0.00,Wunderground v.1.15,2013-02-28 13:03:00,
2013-02-28 05:09:00,32.7,28.7,30.38,NE,40,4.0,7.0,85,0.00,,,0.00,Wunderground v.1.15,2013-02-28 13:09:00,
2013-02-28 05:14:00,32.6,28.6,30.38,NE,45,5.0,6.0,85,0.00,,,0.00,Wunderground v.1.15,2013-02-28 13:14:00,
2013-02-28 05:19:00,32.6,28.6,30.38,NE,41,5.0,6.0,85,0.00,,,0.00,Wunderground v.1.15,2013-02-28 13:19:00,
2013-02-28 05:24:00,32.5,28.8,30.38,NE,40,2.0,4.0,86,0.00,,,0.00,Wunderground v.1.15,2013-02-28 13:24:00,
2013-02-28 05:29:00,32.4,29.0,30.38,NE,40,1.0,4.0,87,0.00,,,0.00,Wunderground v.1.15,2013-02-28 13:29:00,
2013-02-28 05:34:00,32.4,29.0,30.38,NE,40,1.0,3.0,87,0.00,,,0.00,Wunderground v.1.15,2013-02-28 13:34:00,
2013-02-28 05:39:00,32.4,29.2,30.38,NE,40,1.0,3.0,88,0.00,,,0.00,Wunderground v.1.15,2013-02-28 13:39:00,
2013-02-28 05:44:00,32.4,29.2,30.38,NE,40,0.0,1.0,88,0.00,,,0.00,Wunderground v.1.15,2013-02-28 13:44:00,
2013-02-28 05:49:00,32.4,29.5,30.38,NE,40,0.0,2.0,89,0.00,,,0.00,Wunderground v.1.15,2013-02-28 13:49:00,
2013-02-28 05:54:00,32.4,29.5,30.39,NE,40,0.0,0.0,89,0.00,,,0.00,Wunderground v.1.15,2013-02-28 13:54:00,
2013-02-28 05:59:00,32.5,29.9,30.39,NE,40,0.0,0.0,90,0.00,,,0.00,Wunderground v.1.15,2013-02-28 13:59:00,
2013-02-28 06:04:00,32.7,30.4,30.39,NE,40,0.0,1.0,91,0.00,,,0.01,Wunderground v.1.15,2013-02-28 14:04:00,
2013-02-28 06:09:00,32.9,30.6,30.39,NE,40,1.0,1.0,91,0.00,,,0.01,Wunderground v.1.15,2013-02-28 14:09:00,
2013-02-28 06:14:00,33.1,31.0,30.39,NE,40,1.0,1.0,92,0.00,,,0.01,Wunderground v.1.15,2013-02-28 14:14:00,
2013-02-28 06:19:00,33.4,31.6,30.39,NE,40,0.0,1.0,93,0.00,,,0.01,Wunderground v.1.15,2013-02-28 14:19:00,
2013-02-28 06:24:00,33.7,31.9,30.40,NE,40,0.0,0.0,93,0.00,,,0.02,Wunderground v.1.15,2013-02-28 14:24:00,
2013-02-28 06:29:00,33.4,31.3,30.40,NE,40,0.0,0.0,92,0.00,,,0.02,Wunderground v.1.15,2013-02-28 14:29:00,
2013-02-28 06:34:00,33.1,31.3,30.40,NE,40,0.0,0.0,93,0.00,,,0.02,Wunderground v.1.15,2013-02-28 14:34:00,
2013-02-28 06:39:00,33.2,31.7,30.40,NE,40,0.0,0.0,94,0.00,,,0.02,Wunderground v.1.15,2013-02-28 14:39:00,
2013-02-28 06:44:00,33.5,32.0,30.40,NE,40,2.0,2.0,94,0.00,,,0.02,Wunderground v.1.15,2013-02-28 14:44:00,
2013-02-28 06:49:00,34.0,32.7,30.40,SE,132,3.0,3.0,95,0.00,,,0.03,Wunderground v.1.15,2013-02-28 14:49:00,
2013-02-28 06:54:00,34.3,33.0,30.40,SE,134,5.0,5.0,95,0.00,,,0.03,Wunderground v.1.15,2013-02-28 14:54:00,
2013-02-28 06:59:00,34.5,33.2,30.41,SE,137,2.0,3.0,95,0.00,,,0.03,Wunderground v.1.15,2013-02-28 14:59:00,
2013-02-28 07:04:00,34.6,33.3,30.41,SE,137,1.0,5.0,95,0.00,,,0.03,Wunderground v.1.15,2013-02-28 15:04:00,
2013-02-28 07:10:00,34.8,33.8,30.41,SE,137,3.0,3.0,96,0.00,,,0.04,Wunderground v.1.15,2013-02-28 15:10:00,
2013-02-28 07:15:00,34.9,33.9,30.41,SE,137,0.0,4.0,96,0.00,,,0.04,Wunderground v.1.15,2013-02-28 15:15:00,
2013-02-28 07:20:00,34.4,32.9,30.41,SE,137,2.0,2.0,94,0.00,,,0.04,Wunderground v.1.15,2013-02-28 15:20:00,
2013-02-28 07:25:00,33.3,31.5,30.41,SE,136,3.0,4.0,93,0.00,,,0.04,Wunderground v.1.15,2013-02-28 15:25:00,
2013-02-28 07:30:00,32.8,31.3,30.42,SE,136,0.0,2.0,94,0.00,,,0.04,Wunderground v.1.15,2013-02-28 15:30:00,
2013-02-28 07:35:00,32.6,31.1,30.42,SE,136,0.0,2.0,94,0.00,,,0.04,Wunderground v.1.15,2013-02-28 15:35:00,
2013-02-28 07:40:00,32.6,31.3,30.42,SE,136,3.0,3.0,95,0.00,,,0.04,Wunderground v.1.15,2013-02-28 15:40:00,
2013-02-28 07:45:00,32.9,31.6,30.41,SE,136,2.0,3.0,95,0.00,,,0.04,Wunderground v.1.15,2013-02-28 15:45:00,
2013-02-28 07:50:00,33.2,32.2,30.41,SE,136,3.0,3.0,96,0.00,,,0.04,Wunderground v.1.15,2013-02-28 15:50:00,
2013-02-28 07:55:00,33.4,32.4,30.41,ENE,64,3.0,4.0,96,0.00,,,0.04,Wunderground v.1.15,2013-02-28 15:55:00,
2013-02-28 08:00:00,33.2,31.9,30.41,ENE,73,3.0,4.0,95,0.00,,,0.04,Wunderground v.1.15,2013-02-28 16:00:00,
2013-02-28 08:05:00,33.4,32.4,30.41,ENE,73,3.0,4.0,96,0.00,,,0.04,Wunderground v.1.15,2013-02-28 16:05:00,
2013-02-28 08:10:00,33.6,32.6,30.41,NE,46,6.0,6.0,96,0.00,,,0.04,Wunderground v.1.15,2013-02-28 16:10:00,
2013-02-28 08:16:00,32.7,31.4,30.42,NE,45,5.0,6.0,95,0.00,,,0.04,Wunderground v.1.15,2013-02-28 16:16:00,
2013-02-28 08:20:00,32.4,31.1,30.42,NE,53,3.0,5.0,95,0.00,,,0.04,Wunderground v.1.15,2013-02-28 16:20:00,
2013-02-28 08:26:00,32.4,31.4,30.42,NE,53,2.0,5.0,96,0.00,,,0.04,Wunderground v.1.15,2013-02-28 16:26:00,
2013-02-28 08:31:00,32.5,31.5,30.42,NE,55,2.0,2.0,96,0.00,,,0.04,Wunderground v.1.15,2013-02-28 16:31:00,
2013-02-28 08:36:00,32.8,31.8,30.42,SSE,154,3.0,5.0,96,0.00,,,0.04,Wunderground v.1.15,2013-02-28 16:36:00,
2013-02-28 08:41:00,33.4,32.6,30.42,SSE,154,3.0,4.0,97,0.00,,,0.04,Wunderground v.1.15,2013-02-28 16:41:00,
2013-02-28 08:46:00,33.9,33.1,30.42,SSE,154,4.0,7.0,97,0.00,,,0.04,Wunderground v.1.15,2013-02-28 16:46:00,
2013-02-28 08:51:00,34.2,33.4,30.43,SE,136,4.0,4.0,97,0.00,,,0.04,Wunderground v.1.15,2013-02-28 16:51:00,
2013-02-28 08:56:00,34.5,33.7,30.42,SE,125,2.0,5.0,97,0.00,,,0.04,Wunderground v.1.15,2013-02-28 16:56:00,
2013-02-28 09:01:00,34.8,34.0,30.42,ESE,120,2.0,5.0,97,0.00,,,0.04,Wunderground v.1.15,2013-02-28 17:01:00,
2013-02-28 09:06:00,35.0,34.2,30.43,ESE,105,2.0,5.0,97,0.00,,,0.04,Wunderground v.1.15,2013-02-28 17:06:00,
2013-02-28 09:11:00,35.0,34.0,30.43,SE,125,3.0,5.0,96,0.00,,,0.04,Wunderground v.1.15,2013-02-28 17:11:00,
2013-02-28 09:16:00,34.9,33.9,30.43,ESE,117,1.0,5.0,96,0.00,,,0.04,Wunderground v.1.15,2013-02-28 17:16:00,
2013-02-28 09:21:00,35.0,34.2,30.42,ESE,107,4.0,5.0,97,0.00,,,0.04,Wunderground v.1.15,2013-02-28 17:21:00,
2013-02-28 09:26:00,35.2,34.4,30.42,SE,130,7.0,7.0,97,0.00,,,0.04,Wunderground v.1.15,2013-02-28 17:26:00,
2013-02-28 09:31:00,35.2,34.4,30.43,SE,130,2.0,5.0,97,0.00,,,0.04,Wunderground v.1.15,2013-02-28 17:31:00,
2013-02-28 09:36:00,35.5,34.7,30.43,ESE,122,1.0,5.0,97,0.00,,,0.04,Wunderground v.1.15,2013-02-28 17:36:00,
2013-02-28 09:41:00,35.7,34.9,30.43,ESE,121,2.0,7.0,97,0.00,,,0.04,Wunderground v.1.15,2013-02-28 17:41:00,
2013-02-28 09:46:00,35.9,35.1,30.43,SE,144,5.0,7.0,97,0.00,,,0.04,Wunderground v.1.15,2013-02-28 17:46:00,
2013-02-28 09:51:00,36.0,35.2,30.44,South,175,3.0,6.0,97,0.00,,,0.04,Wunderground v.1.15,2013-02-28 17:51:00,
2013-02-28 09:56:00,36.2,35.4,30.44,SE,145,1.0,6.0,97,0.00,,,0.04,Wunderground v.1.15,2013-02-28 17:56:00,
2013-02-28 10:01:00,36.3,35.5,30.44,South,173,5.0,5.0,97,0.00,,,0.04,Wunderground v.1.15,2013-02-28 18:01:00,
2013-02-28 10:06:00,36.5,35.5,30.45,South,173,0.0,6.0,96,0.00,,,0.04,Wunderground v.1.15,2013-02-28 18:06:00,
2013-02-28 10:11:00,36.6,35.6,30.45,South,173,4.0,4.0,96,0.00,,,0.04,Wunderground v.1.15,2013-02-28 18:11:00,
2013-02-28 10:16:00,36.6,35.6,30.45,South,173,1.0,4.0,96,0.00,,,0.04,Wunderground v.1.15,2013-02-28 18:16:00,
2013-02-28 10:21:00,36.0,34.7,30.45,South,173,1.0,2.0,95,0.00,,,0.04,Wunderground v.1.15,2013-02-28 18:21:00,
2013-02-28 10:26:00,35.5,34.2,30.45,South,173,2.0,3.0,95,0.00,,,0.04,Wunderground v.1.15,2013-02-28 18:26:00,
2013-02-28 10:31:00,35.1,33.8,30.44,ENE,58,3.0,4.0,95,0.00,,,0.04,Wunderground v.1.15,2013-02-28 18:31:00,
2013-02-28 10:37:00,35.0,34.0,30.44,ENE,60,4.0,4.0,96,0.00,,,0.04,Wunderground v.1.15,2013-02-28 18:37:00,
2013-02-28 10:42:00,35.2,34.4,30.44,ENE,60,1.0,4.0,97,0.00,,,0.04,Wunderground v.1.15,2013-02-28 18:42:00,
2013-02-28 10:47:00,35.5,34.7,30.43,ENE,61,2.0,4.0,97,0.00,,,0.04,Wunderground v.1.15,2013-02-28 18:47:00,
2013-02-28 10:52:00,35.8,35.0,30.43,ENE,74,2.0,4.0,97,0.00,,,0.04,Wunderground v.1.15,2013-02-28 18:52:00,
2013-02-28 10:57:00,36.0,35.2,30.43,ENE,74,4.0,5.0,97,0.00,,,0.04,Wunderground v.1.15,2013-02-28 18:57:00,
2013-02-28 11:02:00,36.2,35.4,30.43,ENE,75,5.0,5.0,97,0.00,,,0.04,Wunderground v.1.15,2013-02-28 19:02:00,
2013-02-28 11:08:00,36.3,35.5,30.43,East,88,6.0,7.0,97,0.00,,,0.04,Wunderground v.1.15,2013-02-28 19:08:00,
2013-02-28 11:14:00,36.4,35.6,30.42,East,98,3.0,7.0,97,0.00,,,0.04,Wunderground v.1.15,2013-02-28 19:14:00,
2013-02-28 11:19:00,36.6,35.8,30.43,ESE,116,1.0,7.0,97,0.00,,,0.04,Wunderground v.1.15,2013-02-28 19:19:00,
2013-02-28 11:24:00,36.9,36.1,30.43,ESE,116,2.0,4.0,97,0.00,,,0.04,Wunderground v.1.15,2013-02-28 19:24:00,
2013-02-28 11:29:00,37.1,36.1,30.43,SE,139,4.0,6.0,96,0.00,,,0.04,Wunderground v.1.15,2013-02-28 19:29:00,
2013-02-28 11:34:00,37.2,36.2,30.43,SE,139,2.0,5.0,96,0.00,,,0.04,Wunderground v.1.15,2013-02-28 19:34:00,
2013-02-28 11:39:00,37.4,36.4,30.43,SE,139,5.0,5.0,96,0.00,,,0.04,Wunderground v.1.15,2013-02-28 19:39:00,
2013-02-28 11:44:00,37.5,36.5,30.43,SSE,149,3.0,5.0,96,0.00,,,0.04,Wunderground v.1.15,2013-02-28 19:44:00,
2013-02-28 11:49:00,37.7,36.7,30.43,SSE,149,4.0,5.0,96,0.00,,,0.04,Wunderground v.1.15,2013-02-28 19:49:00,
2013-02-28 11:54:00,37.8,36.5,30.43,SSE,149,2.0,5.0,95,0.00,,,0.04,Wunderground v.1.15,2013-02-28 19:54:00,
2013-02-28 11:59:00,37.9,36.6,30.43,SSE,149,2.0,5.0,95,0.00,,,0.04,Wunderground v.1.15,2013-02-28 19:59:00,
2013-02-28 12:04:00,37.9,36.6,30.42,SSE,149,0.0,5.0,95,0.00,,,0.04,Wunderground v.1.15,2013-02-28 20:04:00,
2013-02-28 12:09:00,38.0,36.7,30.42,SSE,149,4.0,5.0,95,0.00,,,0.04,Wunderground v.1.15,2013-02-28 20:09:00,
2013-02-28 12:15:00,38.1,36.5,30.42,SSE,149,0.0,4.0,94,0.00,,,0.04,Wunderground v.1.15,2013-02-28 20:15:00,
2013-02-28 12:20:00,38.4,37.1,30.42,SSE,148,2.0,3.0,95,0.00,,,0.04,Wunderground v.1.15,2013-02-28 20:20:00,
2013-02-28 12:25:00,38.5,36.9,30.42,SE,141,4.0,5.0,94,0.00,,,0.04,Wunderground v.1.15,2013-02-28 20:25:00,
2013-02-28 12:30:00,38.6,36.8,30.42,SSE,156,5.0,6.0,93,0.00,,,0.04,Wunderground v.1.15,2013-02-28 20:30:00,
2013-02-28 12:35:00,38.7,36.9,30.42,SE,128,3.0,6.0,93,0.00,,,0.04,Wunderground v.1.15,2013-02-28 20:35:00,
2013-02-28 12:40:00,38.7,36.9,30.42,SE,128,4.0,4.0,93,0.00,,,0.04,Wunderground v.1.15,2013-02-28 20:40:00,
2013-02-28 12:45:00,38.7,36.9,30.41,SE,128,5.0,8.0,93,0.00,,,0.04,Wunderground v.1.15,2013-02-28 20:45:00,
2013-02-28 12:50:00,38.8,36.9,30.41,SE,140,5.0,5.0,93,0.00,,,0.04,Wunderground v.1.15,2013-02-28 20:50:00,
2013-02-28 12:55:00,38.9,37.0,30.41,SSE,166,3.0,6.0,93,0.00,,,0.04,Wunderground v.1.15,2013-02-28 20:55:00,
2013-02-28 13:00:00,39.0,37.1,30.41,SSE,161,5.0,5.0,93,0.00,,,0.04,Wunderground v.1.15,2013-02-28 21:00:00,
2013-02-28 13:05:00,39.3,37.2,30.41,SSE,166,8.0,8.0,92,0.00,,,0.04,Wunderground v.1.15,2013-02-28 21:05:00,
2013-02-28 13:10:00,39.5,37.1,30.42,South,169,7.0,7.0,91,0.00,,,0.04,Wunderground v.1.15,2013-02-28 21:10:00,
2013-02-28 13:15:00,39.6,36.9,30.41,South,180,7.0,9.0,90,0.00,,,0.04,Wunderground v.1.15,2013-02-28 21:15:00,
2013-02-28 13:20:00,39.7,37.0,30.41,South,186,5.0,7.0,90,0.00,,,0.05,Wunderground v.1.15,2013-02-28 21:20:00,
2013-02-28 13:25:00,39.7,37.3,30.41,South,183,7.0,8.0,91,0.00,,,0.05,Wunderground v.1.15,2013-02-28 21:25:00,
2013-02-28 13:30:00,39.7,37.3,30.41,South,169,6.0,7.0,91,0.00,,,0.05,Wunderground v.1.15,2013-02-28 21:30:00,
2013-02-28 13:35:00,39.7,37.0,30.41,South,170,6.0,7.0,90,0.00,,,0.05,Wunderground v.1.15,2013-02-28 21:35:00,
2013-02-28 13:40:00,39.7,37.3,30.41,SSE,165,5.0,5.0,91,0.00,,,0.05,Wunderground v.1.15,2013-02-28 21:40:00,
2013-02-28 13:46:00,39.7,37.0,30.41,SE,146,7.0,8.0,90,0.00,,,0.06,Wunderground v.1.15,2013-02-28 21:46:00,
2013-02-28 13:50:00,39.7,37.0,30.41,SSE,155,5.0,7.0,90,0.00,,,0.06,Wunderground v.1.15,2013-02-28 21:50:00,
2013-02-28 13:55:00,39.7,37.3,30.41,ESE,121,3.0,8.0,91,0.00,,,0.06,Wunderground v.1.15,2013-02-28 21:55:00,
2013-02-28 14:00:00,39.7,37.3,30.41,SE,129,4.0,7.0,91,0.00,,,0.06,Wunderground v.1.15,2013-02-28 22:00:00,
2013-02-28 14:05:00,39.6,37.2,30.41,ESE,123,3.0,7.0,91,0.00,,,0.07,Wunderground v.1.15,2013-02-28 22:05:00,
2013-02-28 14:10:00,39.7,37.3,30.41,SSE,152,5.0,7.0,91,0.00,,,0.07,Wunderground v.1.15,2013-02-28 22:10:00,
2013-02-28 14:15:00,39.7,37.3,30.41,SE,130,2.0,8.0,91,0.00,,,0.07,Wunderground v.1.15,2013-02-28 22:15:00,
2013-02-28 14:21:00,39.8,37.4,30.42,SSE,150,6.0,7.0,91,0.00,,,0.07,Wunderground v.1.15,2013-02-28 22:21:00,
2013-02-28 14:26:00,39.8,37.4,30.42,SE,136,3.0,8.0,91,0.00,,,0.07,Wunderground v.1.15,2013-02-28 22:26:00,
2013-02-28 14:30:00,39.8,37.4,30.42,SE,143,6.0,7.0,91,0.00,,,0.07,Wunderground v.1.15,2013-02-28 22:30:00,
2013-02-28 14:36:00,39.7,37.3,30.42,SE,141,4.0,8.0,91,0.00,,,0.07,Wunderground v.1.15,2013-02-28 22:36:00,
2013-02-28 14:41:00,39.7,37.3,30.42,ESE,115,4.0,7.0,91,0.00,,,0.07,Wunderground v.1.15,2013-02-28 22:41:00,
2013-02-28 14:46:00,39.7,37.3,30.42,ESE,116,7.0,7.0,91,0.00,,,0.08,Wunderground v.1.15,2013-02-28 22:46:00,
2013-02-28 14:51:00,39.7,37.3,30.42,ESE,116,3.0,4.0,91,0.00,,,0.08,Wunderground v.1.15,2013-02-28 22:51:00,
2013-02-28 14:56:00,39.6,37.2,30.42,SE,128,6.0,7.0,91,0.00,,,0.08,Wunderground v.1.15,2013-02-28 22:56:00,
2013-02-28 15:01:00,39.6,37.5,30.42,South,171,4.0,6.0,92,0.00,,,0.08,Wunderground v.1.15,2013-02-28 23:01:00,
2013-02-28 15:06:00,39.5,37.4,30.42,SSE,155,3.0,6.0,92,0.00,,,0.09,Wunderground v.1.15,2013-02-28 23:06:00,
2013-02-28 15:11:00,39.5,37.6,30.42,SSE,155,2.0,4.0,93,0.00,,,0.09,Wunderground v.1.15,2013-02-28 23:11:00,
2013-02-28 15:16:00,39.5,37.6,30.42,ESE,122,3.0,5.0,93,0.00,,,0.09,Wunderground v.1.15,2013-02-28 23:16:00,
2013-02-28 15:21:00,39.3,37.4,30.42,SE,135,9.0,9.0,93,0.00,,,0.09,Wunderground v.1.15,2013-02-28 23:21:00,
2013-02-28 15:27:00,39.2,37.3,30.42,SE,128,6.0,11.0,93,0.00,,,0.10,Wunderground v.1.15,2013-02-28 23:27:00,
2013-02-28 15:32:00,39.1,37.2,30.42,SE,124,6.0,10.0,93,0.00,,,0.10,Wunderground v.1.15,2013-02-28 23:32:00,
2013-02-28 15:37:00,39.1,37.2,30.42,SE,130,5.0,10.0,93,0.00,,,0.10,Wunderground v.1.15,2013-02-28 23:37:00,
2013-02-28 15:42:00,39.1,37.5,30.42,SE,132,7.0,7.0,94,0.04,,,0.11,Wunderground v.1.15,2013-02-28 23:42:00,
2013-02-28 15:47:00,39.0,37.1,30.42,SE,133,4.0,12.0,93,0.04,,,0.11,Wunderground v.1.15,2013-02-28 23:47:00,
2013-02-28 15:52:00,38.9,37.3,30.42,SE,137,5.0,10.0,94,0.05,,,0.12,Wunderground v.1.15,2013-02-28 23:52:00,
2013-02-28 15:57:00,38.9,37.3,30.42,SE,130,4.0,10.0,94,0.05,,,0.12,Wunderground v.1.15,2013-02-28 23:57:00,
2013-02-28 16:02:00,38.8,37.2,30.42,SE,127,7.0,8.0,94,0.05,,,0.12,Wunderground v.1.15,2013-03-01 00:02:00,
2013-02-28 16:07:00,38.8,37.5,30.42,SE,140,5.0,8.0,95,0.05,,,0.13,Wunderground v.1.15,2013-03-01 00:07:00,
2013-02-28 16:12:00,38.7,37.1,30.41,SSE,153,9.0,12.0,94,0.05,,,0.13,Wunderground v.1.15,2013-03-01 00:12:00,
2013-02-28 16:17:00,38.7,37.1,30.42,SSE,167,7.0,12.0,94,0.04,,,0.13,Wunderground v.1.15,2013-03-01 00:17:00,
2013-02-28 16:22:00,38.6,37.0,30.42,SSE,163,7.0,8.0,94,0.00,,,0.13,Wunderground v.1.15,2013-03-01 00:22:00,
2013-02-28 16:27:00,38.5,36.9,30.42,SSE,157,6.0,11.0,94,0.00,,,0.14,Wunderground v.1.15,2013-03-01 00:27:00,
2013-02-28 16:32:00,38.4,36.8,30.43,SSE,162,9.0,9.0,94,0.00,,,0.14,Wunderground v.1.15,2013-03-01 00:32:00,
2013-02-28 16:37:00,38.3,36.7,30.43,SSE,150,4.0,9.0,94,0.00,,,0.14,Wunderground v.1.15,2013-03-01 00:37:00,
2013-02-28 16:43:00,38.3,36.7,30.43,South,171,5.0,9.0,94,0.00,,,0.14,Wunderground v.1.15,2013-03-01 00:43:00,
2013-02-28 16:48:00,38.2,36.6,30.43,SSE,161,7.0,10.0,94,0.00,,,0.15,Wunderground v.1.15,2013-03-01 00:48:00,
2013-02-28 16:53:00,38.2,36.6,30.44,SSE,155,7.0,10.0,94,0.00,,,0.15,Wunderground v.1.15,2013-03-01 00:53:00,
2013-02-28 16:58:00,38.2,36.6,30.43,SSE,165,8.0,10.0,94,0.00,,,0.15,Wunderground v.1.15,2013-03-01 00:58:00,
2013-02-28 17:04:00,38.2,36.9,30.43,South,174,5.0,8.0,95,0.00,,,0.15,Wunderground v.1.15,2013-03-01 01:04:00,
2013-02-28 17:09:00,38.1,36.8,30.43,South,184,8.0,9.0,95,0.00,,,0.15,Wunderground v.1.15,2013-03-01 01:09:00,
2013-02-28 17:14:00,38.0,36.7,30.43,SSE,161,9.0,11.0,95,0.00,,,0.15,Wunderground v.1.15,2013-03-01 01:14:00,
2013-02-28 17:19:00,37.9,36.6,30.43,South,169,7.0,11.0,95,0.00,,,0.15,Wunderground v.1.15,2013-03-01 01:19:00,
2013-02-28 17:24:00,37.9,36.9,30.43,South,171,9.0,12.0,96,0.00,,,0.15,Wunderground v.1.15,2013-03-01 01:24:00,
2013-02-28 17:29:00,37.9,36.9,30.43,SSE,161,5.0,12.0,96,0.00,,,0.15,Wunderground v.1.15,2013-03-01 01:29:00,
2013-02-28 17:34:00,37.9,36.9,30.43,South,173,3.0,7.0,96,0.00,,,0.15,Wunderground v.1.15,2013-03-01 01:34:00,
2013-02-28 17:39:00,37.9,36.9,30.43,South,173,6.0,7.0,96,0.00,,,0.15,Wunderground v.1.15,2013-03-01 01:39:00,
2013-02-28 17:44:00,37.8,36.8,30.43,South,174,4.0,7.0,96,0.00,,,0.15,Wunderground v.1.15,2013-03-01 01:44:00,
2013-02-28 17:49:00,37.8,36.8,30.43,South,173,4.0,4.0,96,0.00,,,0.15,Wunderground v.1.15,2013-03-01 01:49:00,
2013-02-28 17:55:00,37.8,36.8,30.43,South,173,0.0,5.0,96,0.00,,,0.15,Wunderground v.1.15,2013-03-01 01:55:00,
2013-02-28 18:00:00,37.8,36.8,30.43,SE,146,2.0,3.0,96,0.00,,,0.15,Wunderground v.1.15,2013-03-01 02:00:00,
2013-02-28 18:05:00,37.7,36.7,30.43,SE,139,7.0,8.0,96,0.00,,,0.15,Wunderground v.1.15,2013-03-01 02:05:00,
2013-02-28 18:10:00,37.7,36.7,30.43,SE,124,2.0,4.0,96,0.00,,,0.15,Wunderground v.1.15,2013-03-01 02:10:00,
2013-02-28 18:15:00,37.7,36.7,30.43,SE,136,2.0,6.0,96,0.00,,,0.15,Wunderground v.1.15,2013-03-01 02:15:00,
2013-02-28 18:20:00,37.7,36.7,30.43,SE,128,5.0,5.0,96,0.00,,,0.15,Wunderground v.1.15,2013-03-01 02:20:00,
2013-02-28 18:25:00,37.7,36.7,30.43,ESE,115,5.0,5.0,96,0.00,,,0.15,Wunderground v.1.15,2013-03-01 02:25:00,
2013-02-28 18:30:00,37.7,36.7,30.43,East,90,7.0,7.0,96,0.00,,,0.15,Wunderground v.1.15,2013-03-01 02:30:00,
2013-02-28 18:35:00,37.7,36.7,30.43,ESE,104,2.0,7.0,96,0.00,,,0.15,Wunderground v.1.15,2013-03-01 02:35:00,
2013-02-28 18:40:00,37.6,36.6,30.43,ESE,106,5.0,7.0,96,0.00,,,0.15,Wunderground v.1.15,2013-03-01 02:40:00,
2013-02-28 18:45:00,37.5,36.5,30.42,ESE,107,4.0,7.0,96,0.00,,,0.15,Wunderground v.1.15,2013-03-01 02:45:00,
2013-02-28 18:50:00,37.5,36.5,30.43,SSE,158,5.0,5.0,96,0.00,,,0.15,Wunderground v.1.15,2013-03-01 02:50:00,
2013-02-28 18:55:00,37.5,36.5,30.43,SE,140,2.0,5.0,96,0.00,,,0.15,Wunderground v.1.15,2013-03-01 02:55:00,
2013-02-28 19:00:00,37.5,36.5,30.43,SE,145,4.0,6.0,96,0.00,,,0.15,Wunderground v.1.15,2013-03-01 03:00:00,
2013-02-28 19:05:00,37.6,36.6,30.43,SSE,159,5.0,7.0,96,0.00,,,0.15,Wunderground v.1.15,2013-03-01 03:05:00,
2013-02-28 19:10:00,37.6,36.8,30.43,SSE,152,1.0,5.0,97,0.00,,,0.15,Wunderground v.1.15,2013-03-01 03:10:00,
2013-02-28 19:15:00,37.5,36.5,30.42,SSE,148,4.0,7.0,96,0.00,,,0.15,Wunderground v.1.15,2013-03-01 03:15:00,
2013-02-28 19:20:00,37.5,36.7,30.43,SSE,154,5.0,5.0,97,0.00,,,0.15,Wunderground v.1.15,2013-03-01 03:20:00,
2013-02-28 19:25:00,37.4,36.6,30.43,SE,144,3.0,8.0,97,0.00,,,0.15,Wunderground v.1.15,2013-03-01 03:25:00,
2013-02-28 19:30:00,37.4,36.6,30.44,SE,130,4.0,5.0,97,0.00,,,0.15,Wunderground v.1.15,2013-03-01 03:30:00,
2013-02-28 19:35:00,37.4,36.6,30.43,SE,140,5.0,8.0,97,0.00,,,0.15,Wunderground v.1.15,2013-03-01 03:35:00,
2013-02-28 19:40:00,37.4,36.6,30.44,SE,129,6.0,6.0,97,0.00,,,0.15,Wunderground v.1.15,2013-03-01 03:40:00,
2013-02-28 19:45:00,37.4,36.6,30.44,SSE,159,5.0,8.0,97,0.00,,,0.15,Wunderground v.1.15,2013-03-01 03:45:00,
2013-02-28 19:50:00,37.5,36.7,30.44,SSE,166,7.0,10.0,97,0.00,,,0.15,Wunderground v.1.15,2013-03-01 03:50:00,
2013-02-28 19:56:00,37.5,36.7,30.44,SSE,162,7.0,10.0,97,0.00,,,0.15,Wunderground v.1.15,2013-03-01 03:56:00,
2013-02-28 20:01:00,37.5,37.0,30.44,SE,143,6.0,8.0,98,0.00,,,0.15,Wunderground v.1.15,2013-03-01 04:01:00,
2013-02-28 20:06:00,37.7,37.2,30.44,SSE,154,10.0,10.0,98,0.00,,,0.15,Wunderground v.1.15,2013-03-01 04:06:00,
2013-02-28 20:11:00,37.7,37.2,30.44,SSE,163,10.0,11.0,98,0.00,,,0.15,Wunderground v.1.15,2013-03-01 04:11:00,
2013-02-28 20:16:00,37.7,37.2,30.44,SSE,157,7.0,11.0,98,0.00,,,0.15,Wunderground v.1.15,2013-03-01 04:16:00,
2013-02-28 20:21:00,37.8,37.3,30.44,SSE,162,9.0,11.0,98,0.00,,,0.15,Wunderground v.1.15,2013-03-01 04:21:00,
2013-02-28 20:26:00,37.8,37.3,30.45,SSE,158,5.0,11.0,98,0.00,,,0.15,Wunderground v.1.15,2013-03-01 04:26:00,
2013-02-28 20:31:00,37.9,37.4,30.45,South,169,6.0,6.0,98,0.00,,,0.15,Wunderground v.1.15,2013-03-01 04:31:00,
2013-02-28 20:36:00,37.9,37.4,30.45,SSE,159,6.0,8.0,98,0.00,,,0.15,Wunderground v.1.15,2013-03-01 04:36:00,
2013-02-28 20:41:00,37.9,37.4,30.45,SE,144,5.0,5.0,98,0.00,,,0.15,Wunderground v.1.15,2013-03-01 04:41:00,
2013-02-28 20:46:00,37.9,37.4,30.46,SE,144,0.0,5.0,98,0.00,,,0.15,Wunderground v.1.15,2013-03-01 04:46:00,
2013-02-28 20:51:00,37.9,37.4,30.46,SE,144,2.0,4.0,98,0.00,,,0.15,Wunderground v.1.15,2013-03-01 04:51:00,
2013-02-28 20:56:00,37.9,37.4,30.45,ESE,120,4.0,5.0,98,0.00,,,0.16,Wunderground v.1.15,2013-03-01 04:56:00,
2013-02-28 21:00:00,37.9,37.4,30.45,ESE,120,4.0,4.0,98,0.00,,,0.16,Wunderground v.1.15,2013-03-01 05:00:00,
2013-02-28 21:01:00,37.9,37.4,30.45,ESE,119,4.0,4.0,98,0.00,,,0.16,Wunderground v.1.15,2013-03-01 05:01:00,
2013-02-28 21:06:00,37.9,37.4,30.45,SE,138,4.0,5.0,98,0.00,,,0.16,Wunderground v.1.15,2013-03-01 05:06:00,
2013-02-28 21:07:00,37.9,37.4,30.45,SE,138,2.0,5.0,98,0.00,,,0.16,Wunderground v.1.15,2013-03-01 05:07:00,
2013-02-28 21:12:00,37.9,37.4,30.46,SSE,153,4.0,5.0,98,0.00,,,0.16,Wunderground v.1.15,2013-03-01 05:12:00,
2013-02-28 21:17:00,37.8,37.3,30.45,SSE,149,3.0,6.0,98,0.00,,,0.16,Wunderground v.1.15,2013-03-01 05:17:00,
2013-02-28 21:22:00,37.8,37.3,30.45,SSE,159,2.0,4.0,98,0.00,,,0.16,Wunderground v.1.15,2013-03-01 05:22:00,
2013-02-28 21:27:00,37.8,37.3,30.45,SSE,152,7.0,7.0,98,0.00,,,0.16,Wunderground v.1.15,2013-03-01 05:27:00,
2013-02-28 21:32:00,37.9,37.4,30.45,SSE,155,3.0,6.0,98,0.00,,,0.16,Wunderground v.1.15,2013-03-01 05:32:00,
2013-02-28 21:37:00,37.9,37.4,30.45,SSE,152,6.0,7.0,98,0.00,,,0.16,Wunderground v.1.15,2013-03-01 05:37:00,
2013-02-28 21:42:00,37.9,37.4,30.45,SSE,149,5.0,6.0,98,0.00,,,0.16,Wunderground v.1.15,2013-03-01 05:42:00,
2013-02-28 21:47:00,38.0,37.5,30.46,SSE,161,5.0,6.0,98,0.00,,,0.16,Wunderground v.1.15,2013-03-01 05:47:00,
2013-02-28 21:52:00,38.0,37.5,30.46,SSE,150,5.0,6.0,98,0.00,,,0.16,Wunderground v.1.15,2013-03-01 05:52:00,
2013-02-28 21:57:00,38.1,37.6,30.45,SE,138,5.0,6.0,98,0.00,,,0.16,Wunderground v.1.15,2013-03-01 05:57:00,
2013-02-28 22:02:00,38.1,37.6,30.45,SE,125,6.0,9.0,98,0.00,,,0.16,Wunderground v.1.15,2013-03-01 06:02:00,
2013-02-28 22:07:00,38.2,37.7,30.44,ESE,121,8.0,9.0,98,0.00,,,0.16,Wunderground v.1.15,2013-03-01 06:07:00,
2013-02-28 22:12:00,38.3,37.8,30.44,SSE,148,5.0,7.0,98,0.00,,,0.16,Wunderground v.1.15,2013-03-01 06:12:00,
2013-02-28 22:17:00,38.2,37.7,30.44,SE,146,5.0,9.0,98,0.00,,,0.16,Wunderground v.1.15,2013-03-01 06:17:00,
2013-02-28 22:22:00,38.3,37.8,30.44,SE,130,6.0,9.0,98,0.00,,,0.16,Wunderground v.1.15,2013-03-01 06:22:00,
2013-02-28 22:27:00,38.3,37.8,30.45,SE,138,2.0,9.0,98,0.00,,,0.16,Wunderground v.1.15,2013-03-01 06:27:00,
2013-02-28 22:32:00,38.3,37.8,30.45,SSE,159,5.0,7.0,98,0.00,,,0.16,Wunderground v.1.15,2013-03-01 06:32:00,
2013-02-28 22:37:00,38.4,37.9,30.44,SSE,161,7.0,9.0,98,0.00,,,0.16,Wunderground v.1.15,2013-03-01 06:37:00,
2013-02-28 22:42:00,38.4,37.9,30.45,SSE,155,4.0,6.0,98,0.00,,,0.16,Wunderground v.1.15,2013-03-01 06:42:00,
2013-02-28 22:48:00,38.4,37.9,30.45,SSE,153,5.0,7.0,98,0.00,,,0.16,Wunderground v.1.15,2013-03-01 06:48:00,
2013-02-28 22:53:00,38.4,37.9,30.45,SSE,165,6.0,8.0,98,0.00,,,0.16,Wunderground v.1.15,2013-03-01 06:53:00,
2013-02-28 22:58:00,38.5,38.2,30.45,SSE,163,2.0,8.0,99,0.00,,,0.16,Wunderground v.1.15,2013-03-01 06:58:00,
2013-02-28 23:03:00,38.5,38.2,30.45,SSE,153,4.0,7.0,99,0.00,,,0.16,Wunderground v.1.15,2013-03-01 07:03:00,
2013-02-28 23:08:00,38.5,38.2,30.45,SSE,154,3.0,7.0,99,0.00,,,0.16,Wunderground v.1.15,2013-03-01 07:08:00,
2013-02-28 23:14:00,38.6,38.3,30.45,SSE,155,3.0,5.0,99,0.00,,,0.16,Wunderground v.1.15,2013-03-01 07:14:00,
2013-02-28 23:19:00,38.6,38.3,30.44,SSE,150,5.0,6.0,99,0.00,,,0.16,Wunderground v.1.15,2013-03-01 07:19:00,
2013-02-28 23:24:00,38.7,38.4,30.44,SE,138,4.0,5.0,99,0.00,,,0.16,Wunderground v.1.15,2013-03-01 07:24:00,
2013-02-28 23:29:00,38.6,38.3,30.44,SSE,150,6.0,7.0,99,0.00,,,0.16,Wunderground v.1.15,2013-03-01 07:29:00,
2013-02-28 23:34:00,38.6,38.3,30.44,SE,142,4.0,6.0,99,0.00,,,0.16,Wunderground v.1.15,2013-03-01 07:34:00,
2013-02-28 23:39:00,38.6,38.3,30.44,SSE,150,2.0,7.0,99,0.00,,,0.16,Wunderground v.1.15,2013-03-01 07:39:00,
2013-02-28 23:44:00,38.6,38.3,30.45,SE,142,2.0,5.0,99,0.00,,,0.16,Wunderground v.1.15,2013-03-01 07:44:00,
2013-02-28 23:49:00,38.7,38.4,30.45,SSE,154,4.0,6.0,99,0.00,,,0.16,Wunderground v.1.15,2013-03-01 07:49:00,
2013-02-28 23:54:00,38.8,38.5,30.46,SSE,150,4.0,7.0,99,0.00,,,0.16,Wunderground v.1.15,2013-03-01 07:54:00,
2013-02-28 23:59:00,38.9,38.6,30.46,SSE,156,5.0,7.0,99,0.00,,,0.16,Wunderground v.1.15,2013-03-01 07:59:00,